sensor_id;sensor_type;location;lat;lon;timestamp;temperature;humidity
7240;DHT22;3661;53.288;10.458;2023-09-19T00:01:58;18.30;99.90
7240;DHT22;3661;53.288;10.458;2023-09-19T00:04:32;18.30;99.90
7240;DHT22;3661;53.288;10.458;2023-09-19T00:07:05;18.20;99.90
7240;DHT22;3661;53.288;10.458;2023-09-19T00:09:37;18.20;99.90
7240;DHT22;3661;53.288;10.458;2023-09-19T00:12:19;18.20;99.90
7240;DHT22;3661;53.288;10.458;2023-09-19T00:14:51;18.20;99.90
7240;DHT22;3661;53.288;10.458;2023-09-19T00:17:25;18.10;99.90
7240;DHT22;3661;53.288;10.458;2023-09-19T00:20:01;18.10;99.90
7240;DHT22;3661;53.288;10.458;2023-09-19T00:22:46;18.10;99.90
7240;DHT22;3661;53.288;10.458;2023-09-19T00:25:19;18.00;99.90
7240;DHT22;3661;53.288;10.458;2023-09-19T00:27:54;18.00;99.90
7240;DHT22;3661;53.288;10.458;2023-09-19T00:30:29;18.00;99.90
7240;DHT22;3661;53.288;10.458;2023-09-19T00:33:01;18.00;99.90
7240;DHT22;3661;53.288;10.458;2023-09-19T00:35:37;17.90;99.90
7240;DHT22;3661;53.288;10.458;2023-09-19T00:38:09;17.90;99.90
7240;DHT22;3661;53.288;10.458;2023-09-19T00:40:44;17.90;99.90
7240;DHT22;3661;53.288;10.458;2023-09-19T00:43:23;17.90;99.90
7240;DHT22;3661;53.288;10.458;2023-09-19T00:45:56;17.80;99.90
7240;DHT22;3661;53.288;10.458;2023-09-19T00:48:41;17.80;99.90
7240;DHT22;3661;53.288;10.458;2023-09-19T00:51:15;17.80;99.90
7240;DHT22;3661;53.288;10.458;2023-09-19T00:53:51;17.80;99.90
7240;DHT22;3661;53.288;10.458;2023-09-19T00:56:25;17.80;99.90
7240;DHT22;3661;53.288;10.458;2023-09-19T00:58:58;17.70;99.90
7240;DHT22;3661;53.288;10.458;2023-09-19T01:01:31;17.70;99.90
7240;DHT22;3661;53.288;10.458;2023-09-19T01:04:04;17.70;99.90
7240;DHT22;3661;53.288;10.458;2023-09-19T01:06:38;17.70;99.90
7240;DHT22;3661;53.288;10.458;2023-09-19T01:09:10;17.70;99.90
7240;DHT22;3661;53.288;10.458;2023-09-19T01:11:47;17.60;99.90
7240;DHT22;3661;53.288;10.458;2023-09-19T01:14:30;17.60;99.90
7240;DHT22;3661;53.288;10.458;2023-09-19T01:17:09;17.60;99.90
7240;DHT22;3661;53.288;10.458;2023-09-19T01:20:09;17.60;99.90
7240;DHT22;3661;53.288;10.458;2023-09-19T01:22:53;17.60;99.90
7240;DHT22;3661;53.288;10.458;2023-09-19T01:26:05;17.60;99.90
7240;DHT22;3661;53.288;10.458;2023-09-19T01:29:01;17.50;99.90
7240;DHT22;3661;53.288;10.458;2023-09-19T01:31:46;17.50;99.90
7240;DHT22;3661;53.288;10.458;2023-09-19T01:34:20;17.50;99.90
7240;DHT22;3661;53.288;10.458;2023-09-19T01:36:52;17.50;99.90
7240;DHT22;3661;53.288;10.458;2023-09-19T01:39:25;17.50;99.90
7240;DHT22;3661;53.288;10.458;2023-09-19T01:42:02;17.50;99.90
7240;DHT22;3661;53.288;10.458;2023-09-19T01:44:49;17.50;99.90
7240;DHT22;3661;53.288;10.458;2023-09-19T01:47:31;17.50;99.90
7240;DHT22;3661;53.288;10.458;2023-09-19T01:50:13;17.50;99.90
7240;DHT22;3661;53.288;10.458;2023-09-19T01:52:49;17.50;99.90
7240;DHT22;3661;53.288;10.458;2023-09-19T01:55:27;17.50;99.90
7240;DHT22;3661;53.288;10.458;2023-09-19T01:58:06;17.40;99.90
7240;DHT22;3661;53.288;10.458;2023-09-19T02:00:41;17.50;99.90
7240;DHT22;3661;53.288;10.458;2023-09-19T02:03:16;17.40;99.90
7240;DHT22;3661;53.288;10.458;2023-09-19T02:05:51;17.40;99.90
7240;DHT22;3661;53.288;10.458;2023-09-19T02:08:24;17.40;99.90
7240;DHT22;3661;53.288;10.458;2023-09-19T02:10:57;17.40;99.90
7240;DHT22;3661;53.288;10.458;2023-09-19T02:13:31;17.40;99.90
7240;DHT22;3661;53.288;10.458;2023-09-19T02:16:04;17.40;99.90
7240;DHT22;3661;53.288;10.458;2023-09-19T02:18:39;17.40;99.90
7240;DHT22;3661;53.288;10.458;2023-09-19T02:21:13;17.30;99.90
7240;DHT22;3661;53.288;10.458;2023-09-19T02:23:46;17.30;99.90
7240;DHT22;3661;53.288;10.458;2023-09-19T02:26:19;17.30;99.90
7240;DHT22;3661;53.288;10.458;2023-09-19T02:28:51;17.30;99.90
7240;DHT22;3661;53.288;10.458;2023-09-19T02:31:23;17.20;99.90
7240;DHT22;3661;53.288;10.458;2023-09-19T02:33:57;17.30;99.90
7240;DHT22;3661;53.288;10.458;2023-09-19T02:36:30;17.20;99.90
7240;DHT22;3661;53.288;10.458;2023-09-19T02:39:04;17.20;99.90
7240;DHT22;3661;53.288;10.458;2023-09-19T02:41:42;17.20;99.90
7240;DHT22;3661;53.288;10.458;2023-09-19T02:44:14;17.20;99.90
7240;DHT22;3661;53.288;10.458;2023-09-19T02:46:47;17.20;99.90
7240;DHT22;3661;53.288;10.458;2023-09-19T02:49:21;17.20;99.90
7240;DHT22;3661;53.288;10.458;2023-09-19T02:51:53;17.20;99.90
7240;DHT22;3661;53.288;10.458;2023-09-19T02:54:26;17.10;99.90
7240;DHT22;3661;53.288;10.458;2023-09-19T02:56:59;17.10;99.90
7240;DHT22;3661;53.288;10.458;2023-09-19T02:59:32;17.10;99.90
7240;DHT22;3661;53.288;10.458;2023-09-19T03:02:04;17.00;99.90
7240;DHT22;3661;53.288;10.458;2023-09-19T03:04:38;17.00;99.90
7240;DHT22;3661;53.288;10.458;2023-09-19T03:07:12;17.00;99.90
7240;DHT22;3661;53.288;10.458;2023-09-19T03:09:44;17.00;99.90
7240;DHT22;3661;53.288;10.458;2023-09-19T03:12:17;16.90;99.90
7240;DHT22;3661;53.288;10.458;2023-09-19T03:14:50;17.00;99.90
7240;DHT22;3661;53.288;10.458;2023-09-19T03:17:23;17.00;99.90
7240;DHT22;3661;53.288;10.458;2023-09-19T03:19:57;16.90;99.90
7240;DHT22;3661;53.288;10.458;2023-09-19T03:22:31;16.90;99.90
7240;DHT22;3661;53.288;10.458;2023-09-19T03:25:04;16.90;99.90
7240;DHT22;3661;53.288;10.458;2023-09-19T03:27:39;16.90;99.90
7240;DHT22;3661;53.288;10.458;2023-09-19T03:30:14;16.90;99.90
7240;DHT22;3661;53.288;10.458;2023-09-19T03:32:48;16.90;99.90
7240;DHT22;3661;53.288;10.458;2023-09-19T03:35:22;16.90;99.90
7240;DHT22;3661;53.288;10.458;2023-09-19T03:37:55;16.80;99.90
7240;DHT22;3661;53.288;10.458;2023-09-19T03:40:34;16.80;99.90
7240;DHT22;3661;53.288;10.458;2023-09-19T03:43:09;16.80;99.90
7240;DHT22;3661;53.288;10.458;2023-09-19T03:45:41;16.90;99.90
7240;DHT22;3661;53.288;10.458;2023-09-19T03:48:13;16.80;99.90
7240;DHT22;3661;53.288;10.458;2023-09-19T03:50:47;16.80;99.90
7240;DHT22;3661;53.288;10.458;2023-09-19T03:53:20;16.80;99.90
7240;DHT22;3661;53.288;10.458;2023-09-19T03:55:53;16.80;99.90
7240;DHT22;3661;53.288;10.458;2023-09-19T03:58:28;16.80;99.90
7240;DHT22;3661;53.288;10.458;2023-09-19T04:01:00;16.70;99.90
7240;DHT22;3661;53.288;10.458;2023-09-19T04:03:33;16.70;99.90
7240;DHT22;3661;53.288;10.458;2023-09-19T04:06:18;16.70;99.90
7240;DHT22;3661;53.288;10.458;2023-09-19T04:08:50;16.60;99.90
7240;DHT22;3661;53.288;10.458;2023-09-19T04:11:24;16.60;99.90
7240;DHT22;3661;53.288;10.458;2023-09-19T04:13:56;16.60;99.90
7240;DHT22;3661;53.288;10.458;2023-09-19T04:16:28;16.50;99.90
7240;DHT22;3661;53.288;10.458;2023-09-19T04:19:02;16.50;99.90
7240;DHT22;3661;53.288;10.458;2023-09-19T04:21:36;16.50;99.90
7240;DHT22;3661;53.288;10.458;2023-09-19T04:24:09;16.40;99.90
7240;DHT22;3661;53.288;10.458;2023-09-19T04:26:44;16.40;99.90
7240;DHT22;3661;53.288;10.458;2023-09-19T04:29:16;16.40;99.90
7240;DHT22;3661;53.288;10.458;2023-09-19T04:31:50;16.40;99.90
7240;DHT22;3661;53.288;10.458;2023-09-19T04:34:22;16.30;99.90
7240;DHT22;3661;53.288;10.458;2023-09-19T04:37:06;16.30;99.90
7240;DHT22;3661;53.288;10.458;2023-09-19T04:39:38;16.30;99.90
7240;DHT22;3661;53.288;10.458;2023-09-19T04:42:12;16.30;99.90
7240;DHT22;3661;53.288;10.458;2023-09-19T04:44:45;16.30;99.90
7240;DHT22;3661;53.288;10.458;2023-09-19T04:47:20;16.20;99.90
7240;DHT22;3661;53.288;10.458;2023-09-19T04:49:53;16.20;99.90
7240;DHT22;3661;53.288;10.458;2023-09-19T04:52:27;16.10;99.90
7240;DHT22;3661;53.288;10.458;2023-09-19T04:55:02;16.10;99.90
7240;DHT22;3661;53.288;10.458;2023-09-19T04:57:35;16.10;99.90
7240;DHT22;3661;53.288;10.458;2023-09-19T05:00:10;16.10;99.90
7240;DHT22;3661;53.288;10.458;2023-09-19T05:02:45;16.00;99.90
7240;DHT22;3661;53.288;10.458;2023-09-19T05:05:17;16.00;99.90
7240;DHT22;3661;53.288;10.458;2023-09-19T05:07:51;16.00;99.90
7240;DHT22;3661;53.288;10.458;2023-09-19T05:10:24;15.90;99.90
7240;DHT22;3661;53.288;10.458;2023-09-19T05:12:59;15.90;99.90
7240;DHT22;3661;53.288;10.458;2023-09-19T05:15:31;15.90;99.90
7240;DHT22;3661;53.288;10.458;2023-09-19T05:18:04;15.90;99.90
7240;DHT22;3661;53.288;10.458;2023-09-19T05:20:36;15.80;99.90
7240;DHT22;3661;53.288;10.458;2023-09-19T05:23:12;15.80;99.90
7240;DHT22;3661;53.288;10.458;2023-09-19T05:25:45;15.70;99.90
7240;DHT22;3661;53.288;10.458;2023-09-19T05:28:17;15.70;99.90
7240;DHT22;3661;53.288;10.458;2023-09-19T05:30:50;15.70;99.90
7240;DHT22;3661;53.288;10.458;2023-09-19T05:33:22;15.60;99.90
7240;DHT22;3661;53.288;10.458;2023-09-19T05:35:55;15.60;99.90
7240;DHT22;3661;53.288;10.458;2023-09-19T05:38:28;15.60;99.90
7240;DHT22;3661;53.288;10.458;2023-09-19T05:41:01;15.60;99.90
7240;DHT22;3661;53.288;10.458;2023-09-19T05:43:41;15.50;99.90
7240;DHT22;3661;53.288;10.458;2023-09-19T05:46:30;15.50;99.90
7240;DHT22;3661;53.288;10.458;2023-09-19T05:49:02;15.50;99.90
7240;DHT22;3661;53.288;10.458;2023-09-19T05:51:37;15.50;99.90
7240;DHT22;3661;53.288;10.458;2023-09-19T05:54:11;15.40;99.90
7240;DHT22;3661;53.288;10.458;2023-09-19T05:56:43;15.40;99.90
7240;DHT22;3661;53.288;10.458;2023-09-19T05:59:17;15.40;99.90
7240;DHT22;3661;53.288;10.458;2023-09-19T06:01:50;15.40;99.90
7240;DHT22;3661;53.288;10.458;2023-09-19T06:04:22;15.40;99.90
7240;DHT22;3661;53.288;10.458;2023-09-19T06:06:56;15.40;99.90
7240;DHT22;3661;53.288;10.458;2023-09-19T06:09:32;15.40;99.90
7240;DHT22;3661;53.288;10.458;2023-09-19T06:12:05;15.30;99.90
7240;DHT22;3661;53.288;10.458;2023-09-19T06:14:37;15.30;99.90
7240;DHT22;3661;53.288;10.458;2023-09-19T06:17:11;15.30;99.90
7240;DHT22;3661;53.288;10.458;2023-09-19T06:19:50;15.30;99.90
7240;DHT22;3661;53.288;10.458;2023-09-19T06:22:23;15.30;99.90
7240;DHT22;3661;53.288;10.458;2023-09-19T06:24:59;15.30;99.90
7240;DHT22;3661;53.288;10.458;2023-09-19T06:27:32;15.40;99.90
7240;DHT22;3661;53.288;10.458;2023-09-19T06:30:11;15.40;99.90
7240;DHT22;3661;53.288;10.458;2023-09-19T06:32:47;15.40;99.90
7240;DHT22;3661;53.288;10.458;2023-09-19T06:35:20;15.40;99.90
7240;DHT22;3661;53.288;10.458;2023-09-19T06:38:01;15.40;99.90
7240;DHT22;3661;53.288;10.458;2023-09-19T06:40:45;15.40;99.90
7240;DHT22;3661;53.288;10.458;2023-09-19T06:43:19;15.50;99.90
7240;DHT22;3661;53.288;10.458;2023-09-19T06:45:58;15.50;99.90
7240;DHT22;3661;53.288;10.458;2023-09-19T06:48:30;15.50;99.90
7240;DHT22;3661;53.288;10.458;2023-09-19T06:51:05;15.60;99.90
7240;DHT22;3661;53.288;10.458;2023-09-19T06:53:40;15.60;99.90
7240;DHT22;3661;53.288;10.458;2023-09-19T06:56:17;15.70;99.90
7240;DHT22;3661;53.288;10.458;2023-09-19T06:58:57;15.70;99.90
7240;DHT22;3661;53.288;10.458;2023-09-19T07:01:29;15.70;99.90
7240;DHT22;3661;53.288;10.458;2023-09-19T07:04:03;15.80;99.90
7240;DHT22;3661;53.288;10.458;2023-09-19T07:06:37;15.90;99.90
7240;DHT22;3661;53.288;10.458;2023-09-19T07:09:11;15.90;99.90
7240;DHT22;3661;53.288;10.458;2023-09-19T07:11:46;16.00;99.90
7240;DHT22;3661;53.288;10.458;2023-09-19T07:14:24;16.10;99.90
7240;DHT22;3661;53.288;10.458;2023-09-19T07:16:57;16.10;99.90
7240;DHT22;3661;53.288;10.458;2023-09-19T07:19:32;16.20;99.90
7240;DHT22;3661;53.288;10.458;2023-09-19T07:22:10;16.30;99.90
7240;DHT22;3661;53.288;10.458;2023-09-19T07:24:44;16.30;99.90
7240;DHT22;3661;53.288;10.458;2023-09-19T07:27:22;16.40;99.90
7240;DHT22;3661;53.288;10.458;2023-09-19T07:30:09;16.50;99.90
7240;DHT22;3661;53.288;10.458;2023-09-19T07:32:57;16.60;99.90
7240;DHT22;3661;53.288;10.458;2023-09-19T07:35:31;16.60;99.90
7240;DHT22;3661;53.288;10.458;2023-09-19T07:38:06;16.70;99.90
7240;DHT22;3661;53.288;10.458;2023-09-19T07:40:42;16.70;99.90
7240;DHT22;3661;53.288;10.458;2023-09-19T07:43:17;16.80;99.90
7240;DHT22;3661;53.288;10.458;2023-09-19T07:45:51;16.80;99.90
7240;DHT22;3661;53.288;10.458;2023-09-19T07:48:24;16.90;99.90
7240;DHT22;3661;53.288;10.458;2023-09-19T07:51:03;17.00;99.90
7240;DHT22;3661;53.288;10.458;2023-09-19T07:53:36;17.00;99.90
7240;DHT22;3661;53.288;10.458;2023-09-19T07:56:10;17.10;99.90
7240;DHT22;3661;53.288;10.458;2023-09-19T07:58:49;17.10;99.90
7240;DHT22;3661;53.288;10.458;2023-09-19T08:01:23;17.20;99.90
7240;DHT22;3661;53.288;10.458;2023-09-19T08:03:59;17.30;99.90
7240;DHT22;3661;53.288;10.458;2023-09-19T08:06:32;17.40;99.90
7240;DHT22;3661;53.288;10.458;2023-09-19T08:09:05;17.50;99.90
7240;DHT22;3661;53.288;10.458;2023-09-19T08:11:42;17.50;99.90
7240;DHT22;3661;53.288;10.458;2023-09-19T08:14:27;17.60;99.90
7240;DHT22;3661;53.288;10.458;2023-09-19T08:17:04;17.70;99.90
7240;DHT22;3661;53.288;10.458;2023-09-19T08:19:48;17.70;99.90
7240;DHT22;3661;53.288;10.458;2023-09-19T08:22:25;17.80;99.90
7240;DHT22;3661;53.288;10.458;2023-09-19T08:24:58;17.80;99.90
7240;DHT22;3661;53.288;10.458;2023-09-19T08:27:47;17.80;99.90
7240;DHT22;3661;53.288;10.458;2023-09-19T08:30:22;17.90;99.90
7240;DHT22;3661;53.288;10.458;2023-09-19T08:33:04;18.00;99.90
7240;DHT22;3661;53.288;10.458;2023-09-19T08:35:36;18.10;99.90
7240;DHT22;3661;53.288;10.458;2023-09-19T08:38:09;18.20;99.90
7240;DHT22;3661;53.288;10.458;2023-09-19T08:40:45;18.30;99.90
7240;DHT22;3661;53.288;10.458;2023-09-19T08:43:21;18.30;99.90
7240;DHT22;3661;53.288;10.458;2023-09-19T08:46:03;18.40;99.90
7240;DHT22;3661;53.288;10.458;2023-09-19T08:48:44;18.50;99.90
7240;DHT22;3661;53.288;10.458;2023-09-19T08:51:57;18.50;99.90
7240;DHT22;3661;53.288;10.458;2023-09-19T08:54:54;18.60;99.90
7240;DHT22;3661;53.288;10.458;2023-09-19T08:57:39;18.70;99.90
7240;DHT22;3661;53.288;10.458;2023-09-19T09:00:17;18.70;99.90
7240;DHT22;3661;53.288;10.458;2023-09-19T09:06:17;18.80;99.90
7240;DHT22;3661;53.288;10.458;2023-09-19T09:09:09;18.80;99.90
7240;DHT22;3661;53.288;10.458;2023-09-19T09:12:17;18.90;99.90
7240;DHT22;3661;53.288;10.458;2023-09-19T09:15:07;19.00;99.90
7240;DHT22;3661;53.288;10.458;2023-09-19T09:18:09;19.00;99.90
7240;DHT22;3661;53.288;10.458;2023-09-19T09:20:59;19.20;99.90
7240;DHT22;3661;53.288;10.458;2023-09-19T09:23:48;19.30;99.90
7240;DHT22;3661;53.288;10.458;2023-09-19T09:26:41;19.40;99.90
7240;DHT22;3661;53.288;10.458;2023-09-19T09:29:22;19.50;99.90
7240;DHT22;3661;53.288;10.458;2023-09-19T09:32:58;19.60;99.90
7240;DHT22;3661;53.288;10.458;2023-09-19T09:35:32;19.60;99.90
7240;DHT22;3661;53.288;10.458;2023-09-19T09:38:09;19.70;99.90
7240;DHT22;3661;53.288;10.458;2023-09-19T09:40:51;19.80;99.90
7240;DHT22;3661;53.288;10.458;2023-09-19T09:43:44;19.90;99.90
7240;DHT22;3661;53.288;10.458;2023-09-19T09:46:32;20.00;99.90
7240;DHT22;3661;53.288;10.458;2023-09-19T09:49:58;20.10;99.90
7240;DHT22;3661;53.288;10.458;2023-09-19T09:53:09;20.20;99.90
7240;DHT22;3661;53.288;10.458;2023-09-19T09:56:16;20.30;99.90
7240;DHT22;3661;53.288;10.458;2023-09-19T09:58:56;20.40;99.90
7240;DHT22;3661;53.288;10.458;2023-09-19T10:01:58;20.50;99.90
7240;DHT22;3661;53.288;10.458;2023-09-19T10:22:13;20.90;99.90
7240;DHT22;3661;53.288;10.458;2023-09-19T10:25:33;20.90;99.90
7240;DHT22;3661;53.288;10.458;2023-09-19T10:28:30;21.00;99.90
7240;DHT22;3661;53.288;10.458;2023-09-19T10:32:13;21.00;99.90
7240;DHT22;3661;53.288;10.458;2023-09-19T10:41:53;21.30;99.90
7240;DHT22;3661;53.288;10.458;2023-09-19T11:02:36;21.30;99.90
7240;DHT22;3661;53.288;10.458;2023-09-19T11:09:49;21.30;99.90
7240;DHT22;3661;53.288;10.458;2023-09-19T11:16:47;21.30;99.90
7240;DHT22;3661;53.288;10.458;2023-09-19T11:23:42;21.40;99.90
7240;DHT22;3661;53.288;10.458;2023-09-19T11:30:31;21.40;99.90
7240;DHT22;3661;53.288;10.458;2023-09-19T11:33:31;21.40;99.90
7240;DHT22;3661;53.288;10.458;2023-09-19T11:36:05;21.40;99.90
7240;DHT22;3661;53.288;10.458;2023-09-19T11:42:44;21.30;99.90
7240;DHT22;3661;53.288;10.458;2023-09-19T11:46:18;21.30;99.90
7240;DHT22;3661;53.288;10.458;2023-09-19T11:49:10;21.40;99.90
7240;DHT22;3661;53.288;10.458;2023-09-19T11:52:33;21.40;99.90
7240;DHT22;3661;53.288;10.458;2023-09-19T11:55:41;21.40;99.90
7240;DHT22;3661;53.288;10.458;2023-09-19T11:58:19;21.40;99.90
7240;DHT22;3661;53.288;10.458;2023-09-19T12:01:05;21.40;99.90
7240;DHT22;3661;53.288;10.458;2023-09-19T12:03:56;21.40;99.90
7240;DHT22;3661;53.288;10.458;2023-09-19T12:06:40;21.40;99.90
7240;DHT22;3661;53.288;10.458;2023-09-19T12:09:29;21.40;99.90
7240;DHT22;3661;53.288;10.458;2023-09-19T12:29:09;21.60;99.90
7240;DHT22;3661;53.288;10.458;2023-09-19T12:35:40;21.70;99.90
7240;DHT22;3661;53.288;10.458;2023-09-19T13:05:13;21.70;99.90
7240;DHT22;3661;53.288;10.458;2023-09-19T13:07:46;21.70;99.90
7240;DHT22;3661;53.288;10.458;2023-09-19T13:10:20;21.70;99.90
7240;DHT22;3661;53.288;10.458;2023-09-19T13:12:54;21.70;99.90
7240;DHT22;3661;53.288;10.458;2023-09-19T13:15:27;21.70;99.90
7240;DHT22;3661;53.288;10.458;2023-09-19T13:18:11;21.70;99.90
7240;DHT22;3661;53.288;10.458;2023-09-19T13:21:07;21.70;99.90
7240;DHT22;3661;53.288;10.458;2023-09-19T13:23:43;21.70;99.90
7240;DHT22;3661;53.288;10.458;2023-09-19T13:26:15;21.80;99.90
7240;DHT22;3661;53.288;10.458;2023-09-19T13:28:47;21.80;99.90
7240;DHT22;3661;53.288;10.458;2023-09-19T13:31:22;21.80;99.90
7240;DHT22;3661;53.288;10.458;2023-09-19T13:33:54;21.80;99.90
7240;DHT22;3661;53.288;10.458;2023-09-19T13:36:28;21.70;99.90
7240;DHT22;3661;53.288;10.458;2023-09-19T13:39:00;21.70;99.90
7240;DHT22;3661;53.288;10.458;2023-09-19T13:41:32;21.70;99.90
7240;DHT22;3661;53.288;10.458;2023-09-19T13:44:07;21.70;99.90
7240;DHT22;3661;53.288;10.458;2023-09-19T13:46:43;21.70;99.90
7240;DHT22;3661;53.288;10.458;2023-09-19T13:49:16;21.70;99.90
7240;DHT22;3661;53.288;10.458;2023-09-19T13:51:51;21.70;99.90
7240;DHT22;3661;53.288;10.458;2023-09-19T13:54:23;21.70;99.90
7240;DHT22;3661;53.288;10.458;2023-09-19T13:56:56;21.70;99.90
7240;DHT22;3661;53.288;10.458;2023-09-19T13:59:29;21.70;99.90
7240;DHT22;3661;53.288;10.458;2023-09-19T14:02:01;21.60;99.90
7240;DHT22;3661;53.288;10.458;2023-09-19T14:04:36;21.60;99.90
7240;DHT22;3661;53.288;10.458;2023-09-19T14:07:11;21.60;99.90
7240;DHT22;3661;53.288;10.458;2023-09-19T14:09:45;21.60;99.90
7240;DHT22;3661;53.288;10.458;2023-09-19T14:12:18;21.60;99.90
7240;DHT22;3661;53.288;10.458;2023-09-19T14:14:50;21.60;99.90
7240;DHT22;3661;53.288;10.458;2023-09-19T14:17:22;21.70;99.90
7240;DHT22;3661;53.288;10.458;2023-09-19T14:19:56;21.70;99.90
7240;DHT22;3661;53.288;10.458;2023-09-19T14:22:31;21.70;99.90
7240;DHT22;3661;53.288;10.458;2023-09-19T14:25:05;21.70;99.90
7240;DHT22;3661;53.288;10.458;2023-09-19T14:27:37;21.80;99.90
7240;DHT22;3661;53.288;10.458;2023-09-19T14:30:10;21.80;99.90
7240;DHT22;3661;53.288;10.458;2023-09-19T14:32:43;21.80;99.90
7240;DHT22;3661;53.288;10.458;2023-09-19T14:35:25;21.80;99.90
7240;DHT22;3661;53.288;10.458;2023-09-19T14:38:01;21.80;99.90
7240;DHT22;3661;53.288;10.458;2023-09-19T14:40:33;21.80;99.90
7240;DHT22;3661;53.288;10.458;2023-09-19T14:43:07;21.90;99.90
7240;DHT22;3661;53.288;10.458;2023-09-19T14:45:39;21.90;99.90
7240;DHT22;3661;53.288;10.458;2023-09-19T14:48:11;21.90;99.90
7240;DHT22;3661;53.288;10.458;2023-09-19T14:50:43;21.90;99.90
7240;DHT22;3661;53.288;10.458;2023-09-19T14:53:18;21.90;99.90
7240;DHT22;3661;53.288;10.458;2023-09-19T14:55:50;22.00;99.90
7240;DHT22;3661;53.288;10.458;2023-09-19T14:58:22;22.00;99.90
7240;DHT22;3661;53.288;10.458;2023-09-19T15:01:03;22.00;99.90
7240;DHT22;3661;53.288;10.458;2023-09-19T15:03:36;22.00;99.90
7240;DHT22;3661;53.288;10.458;2023-09-19T15:06:11;22.00;99.90
7240;DHT22;3661;53.288;10.458;2023-09-19T15:08:47;21.90;99.90
7240;DHT22;3661;53.288;10.458;2023-09-19T15:11:21;21.90;99.90
7240;DHT22;3661;53.288;10.458;2023-09-19T15:13:53;21.80;99.90
7240;DHT22;3661;53.288;10.458;2023-09-19T15:16:27;21.80;99.90
7240;DHT22;3661;53.288;10.458;2023-09-19T15:18:59;21.70;99.90
7240;DHT22;3661;53.288;10.458;2023-09-19T15:21:31;21.70;99.90
7240;DHT22;3661;53.288;10.458;2023-09-19T15:24:06;21.60;99.90
7240;DHT22;3661;53.288;10.458;2023-09-19T15:26:40;21.60;99.90
7240;DHT22;3661;53.288;10.458;2023-09-19T15:29:14;21.60;99.90
7240;DHT22;3661;53.288;10.458;2023-09-19T15:31:46;21.60;99.90
7240;DHT22;3661;53.288;10.458;2023-09-19T15:34:19;21.50;99.90
7240;DHT22;3661;53.288;10.458;2023-09-19T15:36:51;21.50;99.90
7240;DHT22;3661;53.288;10.458;2023-09-19T15:39:29;21.50;99.90
7240;DHT22;3661;53.288;10.458;2023-09-19T15:42:04;21.40;99.90
7240;DHT22;3661;53.288;10.458;2023-09-19T15:44:37;21.40;99.90
7240;DHT22;3661;53.288;10.458;2023-09-19T15:47:09;21.40;99.90
7240;DHT22;3661;53.288;10.458;2023-09-19T15:49:41;21.40;99.90
7240;DHT22;3661;53.288;10.458;2023-09-19T15:52:13;21.30;99.90
7240;DHT22;3661;53.288;10.458;2023-09-19T15:54:50;21.30;99.90
7240;DHT22;3661;53.288;10.458;2023-09-19T15:57:22;21.30;99.90
7240;DHT22;3661;53.288;10.458;2023-09-19T15:59:55;21.20;99.90
7240;DHT22;3661;53.288;10.458;2023-09-19T16:02:28;21.20;99.90
7240;DHT22;3661;53.288;10.458;2023-09-19T16:05:01;21.20;99.90
7240;DHT22;3661;53.288;10.458;2023-09-19T16:07:36;21.10;99.90
7240;DHT22;3661;53.288;10.458;2023-09-19T16:10:10;21.10;99.90
7240;DHT22;3661;53.288;10.458;2023-09-19T16:12:46;21.00;99.90
7240;DHT22;3661;53.288;10.458;2023-09-19T16:15:18;21.00;99.90
7240;DHT22;3661;53.288;10.458;2023-09-19T16:17:52;20.90;99.90
7240;DHT22;3661;53.288;10.458;2023-09-19T16:20:25;20.90;99.90
7240;DHT22;3661;53.288;10.458;2023-09-19T16:22:58;20.90;99.90
7240;DHT22;3661;53.288;10.458;2023-09-19T16:25:32;20.80;99.90
7240;DHT22;3661;53.288;10.458;2023-09-19T16:28:07;20.80;99.90
7240;DHT22;3661;53.288;10.458;2023-09-19T16:30:39;20.70;99.90
7240;DHT22;3661;53.288;10.458;2023-09-19T16:33:12;20.60;99.90
7240;DHT22;3661;53.288;10.458;2023-09-19T16:35:44;20.60;99.90
7240;DHT22;3661;53.288;10.458;2023-09-19T16:38:19;20.50;99.90
7240;DHT22;3661;53.288;10.458;2023-09-19T16:40:54;20.50;99.90
7240;DHT22;3661;53.288;10.458;2023-09-19T16:43:27;20.40;99.90
7240;DHT22;3661;53.288;10.458;2023-09-19T16:46:01;20.40;99.90
7240;DHT22;3661;53.288;10.458;2023-09-19T16:48:35;20.30;99.90
7240;DHT22;3661;53.288;10.458;2023-09-19T16:51:09;20.30;99.90
7240;DHT22;3661;53.288;10.458;2023-09-19T16:53:42;20.30;99.90
7240;DHT22;3661;53.288;10.458;2023-09-19T16:56:17;20.30;99.90
7240;DHT22;3661;53.288;10.458;2023-09-19T16:58:50;20.20;99.90
7240;DHT22;3661;53.288;10.458;2023-09-19T17:01:22;20.20;99.90
7240;DHT22;3661;53.288;10.458;2023-09-19T17:03:55;20.10;99.90
7240;DHT22;3661;53.288;10.458;2023-09-19T17:06:28;20.10;99.90
7240;DHT22;3661;53.288;10.458;2023-09-19T17:09:01;20.10;99.90
7240;DHT22;3661;53.288;10.458;2023-09-19T17:11:36;20.00;99.90
7240;DHT22;3661;53.288;10.458;2023-09-19T17:14:08;20.00;99.90
7240;DHT22;3661;53.288;10.458;2023-09-19T17:16:42;20.00;99.90
7240;DHT22;3661;53.288;10.458;2023-09-19T17:19:15;19.90;99.90
7240;DHT22;3661;53.288;10.458;2023-09-19T17:21:50;19.90;99.90
7240;DHT22;3661;53.288;10.458;2023-09-19T17:24:22;19.90;99.90
7240;DHT22;3661;53.288;10.458;2023-09-19T17:27:22;19.80;99.90
7240;DHT22;3661;53.288;10.458;2023-09-19T17:29:54;19.80;99.90
7240;DHT22;3661;53.288;10.458;2023-09-19T17:32:26;19.80;99.90
7240;DHT22;3661;53.288;10.458;2023-09-19T17:34:58;19.70;99.90
7240;DHT22;3661;53.288;10.458;2023-09-19T17:37:33;19.70;99.90
7240;DHT22;3661;53.288;10.458;2023-09-19T17:40:07;19.70;99.90
7240;DHT22;3661;53.288;10.458;2023-09-19T17:42:42;19.70;99.90
7240;DHT22;3661;53.288;10.458;2023-09-19T17:45:15;19.60;99.90
7240;DHT22;3661;53.288;10.458;2023-09-19T17:47:47;19.60;99.90
7240;DHT22;3661;53.288;10.458;2023-09-19T17:50:22;19.60;99.90
7240;DHT22;3661;53.288;10.458;2023-09-19T17:52:54;19.50;99.90
7240;DHT22;3661;53.288;10.458;2023-09-19T17:55:29;19.50;99.90
7240;DHT22;3661;53.288;10.458;2023-09-19T17:58:03;19.50;99.90
7240;DHT22;3661;53.288;10.458;2023-09-19T18:00:37;19.50;99.90
7240;DHT22;3661;53.288;10.458;2023-09-19T18:03:10;19.50;99.90
7240;DHT22;3661;53.288;10.458;2023-09-19T18:05:44;19.40;99.90
7240;DHT22;3661;53.288;10.458;2023-09-19T18:08:16;19.40;99.90
7240;DHT22;3661;53.288;10.458;2023-09-19T18:10:51;19.40;99.90
7240;DHT22;3661;53.288;10.458;2023-09-19T18:13:26;19.40;99.90
7240;DHT22;3661;53.288;10.458;2023-09-19T18:15:59;19.40;99.90
7240;DHT22;3661;53.288;10.458;2023-09-19T18:18:31;19.30;99.90
7240;DHT22;3661;53.288;10.458;2023-09-19T18:21:03;19.30;99.90
7240;DHT22;3661;53.288;10.458;2023-09-19T18:23:36;19.30;99.90
7240;DHT22;3661;53.288;10.458;2023-09-19T18:26:08;19.30;99.90
7240;DHT22;3661;53.288;10.458;2023-09-19T18:28:42;19.30;99.90
7240;DHT22;3661;53.288;10.458;2023-09-19T18:31:14;19.30;99.90
7240;DHT22;3661;53.288;10.458;2023-09-19T18:33:48;19.20;99.90
7240;DHT22;3661;53.288;10.458;2023-09-19T18:36:22;19.20;99.90
7240;DHT22;3661;53.288;10.458;2023-09-19T18:38:55;19.20;99.90
7240;DHT22;3661;53.288;10.458;2023-09-19T18:41:32;19.20;99.90
7240;DHT22;3661;53.288;10.458;2023-09-19T18:44:09;19.20;99.90